Avelgem, Belgium
Current Conditions -  °F | °C
As of 3:00 PM on Thursday 30 Oct 2014 (Local Time) from LFQQ Reporting Station
Clear Clear  
Wind Chill: 64°   Ceiling: Unl
Heat Index: 64°   Visibility: 6mi
Dew Point: 55°   Wind: 10mph
Humidity: 73%   Direction: 180°S
Pressure: 30.15"   Gusts: NA
Location:  50.78°N, 3.45°E
Report Text: LFQQ 301400Z 18009KT CAVOK 18/13 Q1021 NOSIG
Loading
Personal Weather Stations






























Interactive Weather Map
Tropical Storm Tracking
New forecast layout! Learn more

10-Day Weather Forecast

Advertisements
Track Severe Weather on mobile